BIRK/RKV METAR and TAF weather

Enter ICAO airport designator
Station Type Date Time Source
BIRK METAR 2024/05/28 23:00 UTC NOAA

BIRK 282300Z 30016KT 9000 -RA OVC014 07/06 Q1010


Station Type Date Time Source
BIRK Decoded METAR 2024/05/28 23:00 UTC NOAA

Reykjavik, Iceland (BIRK) 64-08N 021-54W 61M
May 28, 2024 - 07:00 PM EDT / 2024.05.28 2300 UTC
Wind: from the WNW (300 degrees) at 18 MPH (16 KT):0
Visibility: 5 mile(s):0
Sky conditions: overcast
Weather: light rain
Temperature: 44 F (7 C)
Dew Point: 42 F (6 C)
Relative Humidity: 93%
Pressure (altimeter): 29.83 in. Hg (1010 hPa)
ob: BIRK 282300Z 30016KT 9000 -RA OVC014 07/06 Q1010
cycle: 23

Station Type Date Time Source
BIRK TAF 2024/05/28 21:54 UTC NOAA